createdAt,value
2022-10-02T00:02:04.110Z,100974.00
2022-10-02T00:04:43.253Z,100962.00
2022-10-02T00:07:13.440Z,100988.00
2022-10-02T00:09:47.852Z,100977.00
2022-10-02T00:12:21.259Z,100992.00
2022-10-02T00:14:54.106Z,100966.00
2022-10-02T00:17:31.103Z,101001.00
2022-10-02T00:20:00.803Z,100998.00
2022-10-02T00:22:41.697Z,101011.00
2022-10-02T00:25:21.226Z,100987.00
2022-10-02T00:28:24.215Z,100985.00
2022-10-02T00:31:17.307Z,100986.00
2022-10-02T00:33:59.188Z,101008.00
2022-10-02T00:36:42.628Z,100985.00
2022-10-02T00:39:24.193Z,101021.00
2022-10-02T00:42:49.958Z,101019.00
2022-10-02T00:45:35.051Z,101017.00
2022-10-02T00:48:18.247Z,101019.00
2022-10-02T00:50:54.603Z,100989.00
2022-10-02T00:53:36.237Z,101022.00
2022-10-02T00:56:21.045Z,101023.00
2022-10-02T00:59:18.808Z,101013.00
2022-10-02T01:01:54.731Z,101043.00
2022-10-02T01:04:31.027Z,101030.00
2022-10-02T01:06:59.697Z,101019.00
2022-10-02T01:09:29.771Z,101012.00
2022-10-02T01:11:58.931Z,101021.00
2022-10-02T01:14:34.885Z,101007.00
2022-10-02T01:17:03.959Z,101032.00
2022-10-02T01:19:39.542Z,101027.00
2022-10-02T01:22:17.881Z,101024.00
2022-10-02T01:24:51.742Z,101023.00
2022-10-02T01:27:20.553Z,101059.00
2022-10-02T01:29:56.841Z,101031.00
2022-10-02T01:32:28.129Z,101022.00
2022-10-02T01:34:57.232Z,101028.00
2022-10-02T01:37:29.075Z,101025.00
2022-10-02T01:40:06.028Z,101060.00
2022-10-02T01:42:35.021Z,101054.00
2022-10-02T01:45:05.131Z,101049.00
2022-10-02T01:47:44.285Z,101037.00
2022-10-02T01:50:20.825Z,101052.00
2022-10-02T01:52:58.136Z,101045.00
2022-10-02T01:55:36.858Z,101059.00
2022-10-02T01:58:22.190Z,101057.00
2022-10-02T02:01:03.022Z,101058.00
2022-10-02T02:03:40.777Z,101059.00
2022-10-02T02:06:14.330Z,101053.00
2022-10-02T02:08:50.451Z,101036.00
2022-10-02T02:11:22.268Z,101056.00
2022-10-02T02:13:56.547Z,101052.00
2022-10-02T02:16:31.620Z,101061.00
2022-10-02T02:19:05.507Z,101052.00
2022-10-02T02:21:39.090Z,101059.00
2022-10-02T02:24:14.361Z,101059.00
2022-10-02T02:26:47.010Z,101042.00
2022-10-02T02:29:18.440Z,101058.00
2022-10-02T02:31:52.796Z,101032.00
2022-10-02T02:34:25.955Z,101066.00
2022-10-02T02:36:59.377Z,101063.00
2022-10-02T02:39:34.964Z,101061.00
2022-10-02T02:42:09.944Z,101062.00
2022-10-02T02:44:43.947Z,101057.00
2022-10-02T02:47:18.163Z,101009.00
2022-10-02T02:49:56.552Z,101055.00
2022-10-02T02:52:31.472Z,101044.00
2022-10-02T02:55:08.571Z,101043.00
2022-10-02T02:57:44.478Z,101046.00
2022-10-02T03:00:15.919Z,101053.00
2022-10-02T03:02:44.214Z,101064.00
2022-10-02T03:05:16.099Z,101069.00
2022-10-02T03:07:51.737Z,101068.00
2022-10-02T03:10:32.412Z,101068.00
2022-10-02T03:13:20.183Z,101029.00
2022-10-02T03:16:04.526Z,101066.00
2022-10-02T03:18:51.306Z,101025.00
2022-10-02T03:21:27.351Z,101069.00
2022-10-02T03:24:07.031Z,101062.00
2022-10-02T03:26:41.818Z,101078.00
2022-10-02T03:29:18.646Z,101071.00
2022-10-02T03:31:47.984Z,101070.00
2022-10-02T03:34:17.179Z,101062.00
2022-10-02T03:36:47.521Z,101053.00
2022-10-02T03:39:25.684Z,101044.00
2022-10-02T03:41:55.444Z,101074.00
2022-10-02T03:44:25.152Z,101077.00
2022-10-02T03:46:53.423Z,101078.00
2022-10-02T03:49:21.662Z,101073.00
2022-10-02T03:51:49.844Z,101073.00
2022-10-02T03:54:20.131Z,101091.00
2022-10-02T03:56:57.635Z,101078.00
2022-10-02T03:59:41.604Z,101105.00
2022-10-02T04:02:22.542Z,101095.00
2022-10-02T04:04:56.396Z,101082.00
2022-10-02T04:07:30.111Z,101086.00
2022-10-02T04:10:15.635Z,101114.00
2022-10-02T04:12:49.156Z,101103.00
2022-10-02T04:15:25.901Z,101108.00
2022-10-02T04:18:00.316Z,101082.00
2022-10-02T04:20:36.393Z,101090.00
2022-10-02T04:23:15.103Z,101121.00
2022-10-02T04:25:50.695Z,101091.00
2022-10-02T04:28:25.791Z,101082.00
2022-10-02T04:30:56.657Z,101118.00
2022-10-02T04:33:26.725Z,101127.00
2022-10-02T04:36:08.666Z,101120.00
2022-10-02T04:39:00.797Z,101121.00
2022-10-02T04:42:06.895Z,101118.00
2022-10-02T04:44:56.396Z,101117.00
2022-10-02T04:47:44.824Z,101127.00
2022-10-02T04:50:36.620Z,101130.00
2022-10-02T04:53:50.239Z,101136.00
2022-10-02T04:56:49.831Z,101141.00
2022-10-02T04:59:37.067Z,101133.00
2022-10-02T05:02:23.695Z,101142.00
2022-10-02T05:05:09.598Z,101150.00
2022-10-02T05:08:17.035Z,101122.00
2022-10-02T05:11:06.314Z,101146.00
2022-10-02T05:13:55.174Z,101126.00
2022-10-02T05:16:42.737Z,101141.00
2022-10-02T05:19:41.442Z,101132.00
2022-10-02T05:22:39.447Z,101138.00
2022-10-02T05:25:42.840Z,101132.00
2022-10-02T05:28:44.327Z,101142.00
2022-10-02T05:31:26.881Z,101145.00
2022-10-02T05:34:14.366Z,101145.00
2022-10-02T05:37:09.111Z,101154.00
2022-10-02T05:39:46.908Z,101158.00
2022-10-02T05:42:26.202Z,101121.00
2022-10-02T05:45:02.580Z,101140.00
2022-10-02T05:47:35.978Z,101152.00
2022-10-02T05:50:16.391Z,101164.00
2022-10-02T05:52:54.285Z,101164.00
2022-10-02T05:55:31.503Z,101171.00
2022-10-02T05:58:07.104Z,101138.00
2022-10-02T06:00:42.829Z,101173.00
2022-10-02T06:03:19.275Z,101174.00
2022-10-02T06:05:55.363Z,101185.00
2022-10-02T06:08:32.834Z,101184.00
2022-10-02T06:11:09.226Z,101156.00
2022-10-02T06:13:45.045Z,101186.00
2022-10-02T06:16:21.042Z,101191.00
2022-10-02T06:18:55.595Z,101188.00
2022-10-02T06:21:34.852Z,101201.00
2022-10-02T06:24:12.392Z,101210.00
2022-10-02T06:26:50.788Z,101215.00
2022-10-02T06:29:27.291Z,101212.00
2022-10-02T06:32:06.365Z,101220.00
2022-10-02T06:34:34.714Z,101206.00
2022-10-02T06:37:40.527Z,101188.00
2022-10-02T06:40:46.788Z,101204.00
2022-10-02T06:43:50.538Z,101226.00
2022-10-02T06:46:31.324Z,101236.00
2022-10-02T06:49:09.711Z,101228.00
2022-10-02T06:51:54.574Z,101243.00
2022-10-02T06:54:44.357Z,101246.00
2022-10-02T06:57:28.075Z,101216.00
2022-10-02T07:00:14.277Z,101238.00
2022-10-02T07:03:30.581Z,101250.00
2022-10-02T07:06:20.471Z,101240.00
2022-10-02T07:09:07.750Z,101250.00
2022-10-02T07:11:48.351Z,101248.00
2022-10-02T07:14:32.052Z,101250.00
2022-10-02T07:17:22.451Z,101244.00
2022-10-02T07:20:19.886Z,101242.00
2022-10-02T07:23:12.828Z,101251.00
2022-10-02T07:25:59.302Z,101268.00
2022-10-02T07:28:36.762Z,101271.00
2022-10-02T07:31:13.557Z,101255.00
2022-10-02T07:33:58.171Z,101276.00
2022-10-02T07:36:39.363Z,101279.00
2022-10-02T07:39:22.539Z,101283.00
2022-10-02T07:42:35.668Z,101274.00
2022-10-02T07:45:30.442Z,101290.00
2022-10-02T07:48:29.868Z,101295.00
2022-10-02T07:51:38.672Z,101294.00
2022-10-02T07:54:30.948Z,101281.00
2022-10-02T07:57:09.680Z,101298.00
2022-10-02T07:59:43.687Z,101287.00
2022-10-02T08:02:26.053Z,101290.00
2022-10-02T08:04:59.502Z,101314.00
2022-10-02T08:07:30.287Z,101298.00
2022-10-02T08:10:05.034Z,101322.00
2022-10-02T08:12:38.427Z,101321.00
2022-10-02T08:15:12.454Z,101294.00
2022-10-02T08:17:47.284Z,101324.00
2022-10-02T08:20:27.396Z,101312.00
2022-10-02T08:23:08.094Z,101323.00
2022-10-02T08:25:44.611Z,101328.00
2022-10-02T08:28:21.457Z,101319.00
2022-10-02T08:30:49.985Z,101323.00
2022-10-02T08:33:21.602Z,101334.00
2022-10-02T08:36:09.390Z,101315.00
2022-10-02T08:38:48.647Z,101341.00
2022-10-02T08:42:09.903Z,101347.00
2022-10-02T08:45:14.842Z,101335.00
2022-10-02T08:48:25.918Z,101342.00
2022-10-02T08:51:55.225Z,101359.00
2022-10-02T08:54:55.561Z,101365.00
2022-10-02T08:58:22.475Z,101371.00
2022-10-02T09:01:07.246Z,101366.00
2022-10-02T09:04:18.707Z,101375.00
2022-10-02T09:07:50.808Z,101370.00
2022-10-02T09:11:02.224Z,101375.00
2022-10-02T09:14:05.816Z,101392.00
2022-10-02T09:16:56.514Z,101379.00
2022-10-02T09:19:42.407Z,101383.00
2022-10-02T09:22:58.972Z,101379.00
2022-10-02T09:25:38.402Z,101393.00
2022-10-02T09:28:54.612Z,101398.00
2022-10-02T09:32:05.198Z,101400.00
2022-10-02T09:35:32.267Z,101393.00
2022-10-02T09:38:46.952Z,101373.00
2022-10-02T09:42:08.245Z,101362.00
2022-10-02T09:45:18.065Z,101396.00
2022-10-02T09:48:33.022Z,101389.00
2022-10-02T09:52:07.243Z,101393.00
2022-10-02T09:55:43.434Z,101396.00
2022-10-02T09:58:59.120Z,101399.00
2022-10-02T10:01:51.019Z,101401.00
2022-10-02T10:05:05.765Z,101402.00
2022-10-02T10:08:32.966Z,101414.00
2022-10-02T10:11:20.699Z,101414.00
2022-10-02T10:14:37.018Z,101402.00
2022-10-02T10:17:51.685Z,101410.00
2022-10-02T10:21:00.117Z,101411.00
2022-10-02T10:24:14.944Z,101443.00
2022-10-02T10:27:15.030Z,101444.00
2022-10-02T10:30:33.822Z,101442.00
2022-10-02T10:33:34.689Z,101440.00
2022-10-02T10:36:46.733Z,101451.00
2022-10-02T10:40:18.839Z,101450.00
2022-10-02T10:43:28.692Z,101453.00
2022-10-02T10:46:38.129Z,101456.00
2022-10-02T10:50:02.335Z,101466.00
2022-10-02T10:52:52.757Z,101465.00
2022-10-02T10:55:43.631Z,101458.00
2022-10-02T10:58:22.307Z,101471.00
2022-10-02T11:01:07.077Z,101470.00
2022-10-02T11:04:15.595Z,101478.00
2022-10-02T11:07:07.703Z,101479.00
2022-10-02T11:10:07.620Z,101487.00
2022-10-02T11:13:03.146Z,101482.00
2022-10-02T11:16:13.025Z,101477.00
2022-10-02T11:19:21.499Z,101466.00
2022-10-02T11:22:42.801Z,101491.00
2022-10-02T11:25:49.381Z,101481.00
2022-10-02T11:28:56.331Z,101500.00
2022-10-02T11:31:42.185Z,101498.00
2022-10-02T11:34:42.739Z,101487.00
2022-10-02T11:37:38.719Z,101490.00
2022-10-02T11:40:34.799Z,101516.00
2022-10-02T11:43:44.615Z,101509.00
2022-10-02T11:46:45.193Z,101513.00
2022-10-02T11:49:36.369Z,101511.00
2022-10-02T11:52:38.258Z,101503.00
2022-10-02T11:55:28.165Z,101502.00
2022-10-02T11:58:10.675Z,101506.00
2022-10-02T12:01:07.256Z,101530.00
2022-10-02T12:03:52.410Z,101527.00
2022-10-02T12:06:37.825Z,101494.00
2022-10-02T12:09:20.359Z,101538.00
2022-10-02T12:12:09.564Z,101515.00
2022-10-02T12:14:43.739Z,101515.00
2022-10-02T12:17:53.431Z,101515.00
2022-10-02T12:20:55.824Z,101519.00
2022-10-02T12:23:56.968Z,101494.00
2022-10-02T12:27:09.747Z,101532.00
2022-10-02T12:30:08.429Z,101535.00
2022-10-02T12:33:07.438Z,101517.00
2022-10-02T12:35:51.687Z,101540.00
2022-10-02T12:38:42.774Z,101529.00
2022-10-02T12:41:34.266Z,101520.00
2022-10-02T12:44:52.988Z,101556.00
2022-10-02T12:48:00.165Z,101547.00
2022-10-02T12:50:53.087Z,101561.00
2022-10-02T12:54:18.284Z,101555.00
2022-10-02T12:57:39.160Z,101560.00
2022-10-02T13:00:14.858Z,101555.00
2022-10-02T13:03:34.995Z,101564.00
2022-10-02T13:06:55.280Z,101550.00
2022-10-02T13:09:49.050Z,101571.00
2022-10-02T13:12:46.126Z,101552.00
2022-10-02T13:15:37.174Z,101560.00
2022-10-02T13:18:25.513Z,101556.00
2022-10-02T13:21:06.341Z,101569.00
2022-10-02T13:23:46.650Z,101574.00
2022-10-02T13:26:28.178Z,101565.00
2022-10-02T13:29:23.604Z,101568.00
2022-10-02T13:32:27.644Z,101575.00
2022-10-02T13:35:29.573Z,101565.00
2022-10-02T13:38:12.613Z,101565.00
2022-10-02T13:40:51.223Z,101559.00
2022-10-02T13:43:42.404Z,101587.00
2022-10-02T13:46:24.745Z,101587.00
2022-10-02T13:49:07.333Z,101590.00
2022-10-02T13:51:46.836Z,101587.00
2022-10-02T13:54:43.839Z,101581.00
2022-10-02T13:57:31.254Z,101588.00
2022-10-02T14:00:10.881Z,101601.00
2022-10-02T14:03:05.904Z,101606.00
2022-10-02T14:05:43.990Z,101584.00
2022-10-02T14:08:46.696Z,101602.00
2022-10-02T14:11:29.866Z,101605.00
2022-10-02T14:14:17.360Z,101595.00
2022-10-02T14:16:58.170Z,101613.00
2022-10-02T14:20:03.169Z,101608.00
2022-10-02T14:22:42.004Z,101609.00
2022-10-02T14:25:38.016Z,101596.00
2022-10-02T14:28:25.124Z,101625.00
2022-10-02T14:31:21.842Z,101632.00
2022-10-02T14:34:21.246Z,101608.00
2022-10-02T14:36:59.846Z,101627.00
2022-10-02T14:39:35.713Z,101614.00
2022-10-02T14:42:28.506Z,101606.00
2022-10-02T14:45:42.433Z,101648.00
2022-10-02T14:48:40.017Z,101643.00
2022-10-02T14:51:28.135Z,101622.00
2022-10-02T14:54:14.664Z,101670.00
2022-10-02T14:57:31.773Z,101666.00
2022-10-02T15:00:21.777Z,101675.00
2022-10-02T15:03:10.460Z,101663.00
2022-10-02T15:05:52.629Z,101661.00
2022-10-02T15:08:28.818Z,101649.00
2022-10-02T15:10:57.972Z,101674.00
2022-10-02T15:13:36.138Z,101677.00
2022-10-02T15:16:34.495Z,101680.00
2022-10-02T15:19:16.862Z,101685.00
2022-10-02T15:21:56.403Z,101664.00
2022-10-02T15:24:32.904Z,101673.00
2022-10-02T15:27:24.023Z,101695.00
2022-10-02T15:30:15.268Z,101691.00
2022-10-02T15:33:15.941Z,101689.00
2022-10-02T15:36:02.602Z,101688.00
2022-10-02T15:38:53.391Z,101660.00
2022-10-02T15:41:41.983Z,101694.00
2022-10-02T15:44:24.155Z,101723.00
2022-10-02T15:47:05.254Z,101720.00
2022-10-02T15:49:48.945Z,101712.00
2022-10-02T15:52:35.760Z,101709.00
2022-10-02T15:55:21.168Z,101739.00
2022-10-02T15:58:19.791Z,101738.00
2022-10-02T16:01:30.799Z,101724.00
2022-10-02T16:04:12.263Z,101728.00
2022-10-02T16:07:08.324Z,101714.00
2022-10-02T16:09:51.346Z,101724.00
2022-10-02T16:12:39.681Z,101717.00
2022-10-02T16:15:22.919Z,101757.00
2022-10-02T16:18:41.332Z,101737.00
2022-10-02T16:21:52.132Z,101771.00
2022-10-02T16:25:03.346Z,101768.00
2022-10-02T16:27:49.933Z,101744.00
2022-10-02T16:30:21.208Z,101759.00
2022-10-02T16:33:15.903Z,101790.00
2022-10-02T16:36:23.395Z,101767.00
2022-10-02T16:39:04.073Z,101769.00
2022-10-02T16:41:38.707Z,101788.00
2022-10-02T16:44:27.817Z,101772.00
2022-10-02T16:47:03.513Z,101782.00
2022-10-02T16:49:44.354Z,101810.00
2022-10-02T16:52:20.442Z,101812.00
2022-10-02T16:54:55.945Z,101805.00
2022-10-02T16:57:50.264Z,101817.00
2022-10-02T17:00:26.763Z,101831.00
2022-10-02T17:03:03.954Z,101837.00
2022-10-02T17:05:46.015Z,101831.00
2022-10-02T17:08:24.728Z,101819.00
2022-10-02T17:11:15.882Z,101838.00
2022-10-02T17:13:59.822Z,101813.00
2022-10-02T17:16:35.971Z,101847.00
2022-10-02T17:19:21.381Z,101858.00
2022-10-02T17:21:56.057Z,101843.00
2022-10-02T17:24:36.346Z,101832.00
2022-10-02T17:27:38.889Z,101838.00
2022-10-02T17:30:21.100Z,101858.00
2022-10-02T17:32:56.689Z,101843.00
2022-10-02T17:35:48.931Z,101883.00
2022-10-02T17:38:52.599Z,101876.00
2022-10-02T17:41:42.309Z,101896.00
2022-10-02T17:44:25.205Z,101883.00
2022-10-02T17:47:17.651Z,101907.00
2022-10-02T17:50:17.769Z,101895.00
2022-10-02T17:53:09.002Z,101892.00
2022-10-02T17:56:28.665Z,101888.00
2022-10-02T17:59:21.143Z,101893.00
2022-10-02T18:02:04.719Z,101922.00
2022-10-02T18:04:49.044Z,101925.00
2022-10-02T18:07:34.589Z,101926.00
2022-10-02T18:10:17.646Z,101929.00
2022-10-02T18:13:17.699Z,101884.00
2022-10-02T18:16:22.917Z,101925.00
2022-10-02T18:19:23.790Z,101920.00
2022-10-02T18:22:08.191Z,101952.00
2022-10-02T18:25:12.428Z,101928.00
2022-10-02T18:28:14.231Z,101931.00
2022-10-02T18:30:50.338Z,101951.00
2022-10-02T18:34:06.674Z,101935.00
2022-10-02T18:36:59.291Z,101946.00
2022-10-02T18:39:41.084Z,101956.00
2022-10-02T18:42:41.871Z,101961.00
2022-10-02T18:45:35.051Z,101963.00
2022-10-02T18:48:28.094Z,101944.00
2022-10-02T18:51:23.687Z,101947.00
2022-10-02T18:54:22.997Z,101954.00
2022-10-02T18:57:12.097Z,101977.00
2022-10-02T18:59:58.523Z,101960.00
2022-10-02T19:03:04.558Z,101959.00
2022-10-02T19:05:35.762Z,101984.00
2022-10-02T19:08:20.396Z,101989.00
2022-10-02T19:10:48.964Z,101992.00
2022-10-02T19:13:26.092Z,101985.00
2022-10-02T19:15:58.532Z,101989.00
2022-10-02T19:18:29.561Z,101993.00
2022-10-02T19:21:06.593Z,101987.00
2022-10-02T19:23:42.769Z,101972.00
2022-10-02T19:26:20.541Z,101997.00
2022-10-02T19:28:55.302Z,101992.00
2022-10-02T19:31:27.383Z,101980.00
2022-10-02T19:33:58.993Z,102003.00
2022-10-02T19:36:30.740Z,101988.00
2022-10-02T19:39:04.710Z,101990.00
2022-10-02T19:41:41.881Z,101999.00
2022-10-02T19:44:25.477Z,102016.00
2022-10-02T19:46:56.987Z,101999.00
2022-10-02T19:49:33.185Z,102020.00
2022-10-02T19:52:01.878Z,102030.00
2022-10-02T19:54:40.859Z,102032.00
2022-10-02T19:57:16.503Z,102019.00
2022-10-02T19:59:53.011Z,102027.00
2022-10-02T20:02:32.538Z,102043.00
2022-10-02T20:05:05.818Z,102043.00
2022-10-02T20:07:39.344Z,102047.00
2022-10-02T20:10:16.906Z,102011.00
2022-10-02T20:12:52.461Z,102005.00
2022-10-02T20:15:39.355Z,102039.00
2022-10-02T20:18:10.630Z,102041.00
2022-10-02T20:20:41.457Z,102055.00
2022-10-02T20:23:17.273Z,102050.00
2022-10-02T20:25:52.264Z,102056.00
2022-10-02T20:28:29.446Z,102033.00
2022-10-02T20:31:03.990Z,102059.00
2022-10-02T20:33:38.718Z,102020.00
2022-10-02T20:36:14.078Z,102032.00
2022-10-02T20:38:48.271Z,102067.00
2022-10-02T20:41:24.341Z,102070.00
2022-10-02T20:43:56.528Z,102054.00
2022-10-02T20:47:20.396Z,102065.00
2022-10-02T20:50:21.274Z,102086.00
2022-10-02T20:53:31.363Z,102057.00
2022-10-02T20:56:07.672Z,102085.00
2022-10-02T20:59:07.576Z,102085.00
2022-10-02T21:01:47.637Z,102063.00
2022-10-02T21:05:04.051Z,102100.00
2022-10-02T21:08:14.917Z,102097.00
2022-10-02T21:11:18.118Z,102092.00
2022-10-02T21:14:38.074Z,102083.00
2022-10-02T21:17:46.224Z,102101.00
2022-10-02T21:21:03.771Z,102115.00
2022-10-02T21:23:50.143Z,102086.00
2022-10-02T21:26:50.069Z,102125.00
2022-10-02T21:29:37.273Z,102127.00
2022-10-02T21:32:28.819Z,102112.00
2022-10-02T21:35:31.959Z,102132.00
2022-10-02T21:38:37.763Z,102145.00
2022-10-02T21:42:09.260Z,102141.00
2022-10-02T21:45:37.120Z,102126.00
2022-10-02T21:49:14.212Z,102143.00
2022-10-02T21:52:51.623Z,102155.00
2022-10-02T21:55:54.654Z,102156.00
2022-10-02T21:59:06.751Z,102164.00
2022-10-02T22:02:20.565Z,102155.00
2022-10-02T22:05:33.696Z,102159.00
2022-10-02T22:08:13.951Z,102136.00
2022-10-02T22:10:52.478Z,102173.00
2022-10-02T22:13:28.231Z,102171.00
2022-10-02T22:16:13.464Z,102164.00
2022-10-02T22:18:50.899Z,102169.00
2022-10-02T22:21:47.925Z,102170.00
2022-10-02T22:25:05.128Z,102176.00
2022-10-02T22:28:03.490Z,102177.00
2022-10-02T22:30:38.138Z,102146.00
2022-10-02T22:33:33.220Z,102173.00
2022-10-02T22:36:34.923Z,102169.00
2022-10-02T22:39:09.519Z,102185.00
2022-10-02T22:41:44.330Z,102191.00
2022-10-02T22:44:25.085Z,102185.00
2022-10-02T22:46:58.231Z,102188.00
2022-10-02T22:49:35.977Z,102192.00
2022-10-02T22:52:12.869Z,102171.00
2022-10-02T22:54:46.726Z,102152.00
2022-10-02T22:57:24.939Z,102204.00
2022-10-02T23:00:01.566Z,102191.00
2022-10-02T23:02:36.530Z,102195.00
2022-10-02T23:05:13.429Z,102197.00
2022-10-02T23:07:50.706Z,102192.00
2022-10-02T23:10:30.803Z,102192.00
2022-10-02T23:13:06.797Z,102191.00
2022-10-02T23:15:47.902Z,102182.00
2022-10-02T23:18:28.267Z,102181.00
2022-10-02T23:21:04.573Z,102170.00
2022-10-02T23:23:46.307Z,102190.00
2022-10-02T23:26:20.879Z,102172.00
2022-10-02T23:29:04.456Z,102190.00
2022-10-02T23:31:37.541Z,102193.00
2022-10-02T23:34:30.918Z,102191.00
2022-10-02T23:37:02.892Z,102199.00
2022-10-02T23:39:40.148Z,102147.00
2022-10-02T23:42:15.228Z,102187.00
2022-10-02T23:44:50.071Z,102161.00
2022-10-02T23:47:33.048Z,102202.00
2022-10-02T23:50:02.664Z,102202.00
2022-10-02T23:52:51.156Z,102189.00
2022-10-02T23:55:42.688Z,102209.00
2022-10-02T23:58:50.992Z,102210.00
